Time;durP1;ratioP1;P1;durP2;ratioP2;P2;SDS_P1;SDS_P2;PMS_P1;PMS_P2;Temp;Humidity;BMP_temperature;BMP_pressure;BME280_temperature;BME280_humidity;BME280_pressure;Samples;Min_cycle;Max_cycle;Signal;HPM_P1;HPM_P2
2022/11/04 00:01:07;;;;;;;66.22;62.85;;;;;;;10.13;100.00;99707.97;5031754;28;20115;-75
2022/11/04 00:03:33;;;;;;;68.47;65.40;;;;;;;10.11;100.00;99704.69;5031823;28;20043;-75
2022/11/04 00:06:01;;;;;;;73.18;69.90;;;;;;;10.15;100.00;99709.44;5018654;28;20024;-75
2022/11/04 00:08:26;;;;;;;75.50;71.80;;;;;;;10.15;100.00;99708.59;5045773;28;20043;-75
2022/11/04 00:13:41;;;;;;;59.78;56.95;;;;;;;10.14;100.00;99699.88;5063251;28;20052;-75
2022/11/04 00:18:53;;;;;;;62.42;59.13;;;;;;;10.16;100.00;99695.25;5070383;28;20445;-75
2022/11/04 00:29:31;;;;;;;60.00;57.25;;;;;;;10.20;100.00;99701.00;5069220;28;20050;-75
2022/11/04 00:34:40;;;;;;;62.55;59.03;;;;;;;10.17;100.00;99701.31;5039987;28;20522;-75
2022/11/04 00:37:05;;;;;;;61.28;58.63;;;;;;;10.16;100.00;99708.44;5053309;28;20055;-75
2022/11/04 00:39:31;;;;;;;65.43;61.97;;;;;;;10.14;100.00;99705.16;5049018;28;20039;-75
2022/11/04 00:41:56;;;;;;;64.32;61.30;;;;;;;10.05;100.00;99693.84;5066780;28;20031;-75
2022/11/04 00:44:21;;;;;;;65.78;62.92;;;;;;;10.00;100.00;99679.56;5046566;28;20043;-75
2022/11/04 00:46:47;;;;;;;63.80;60.72;;;;;;;10.06;100.00;99692.00;5047368;28;20052;-75
2022/11/04 00:49:12;;;;;;;69.07;65.88;;;;;;;10.06;100.00;99697.28;5034779;28;20036;-76
2022/11/04 00:51:38;;;;;;;61.95;59.20;;;;;;;10.12;100.00;99720.31;5038776;28;20081;-75
2022/11/04 00:54:03;;;;;;;146.63;139.77;;;;;;;10.08;100.00;99713.75;5036544;28;20372;-75
2022/11/04 00:56:29;;;;;;;75.80;72.65;;;;;;;9.97;100.00;99728.13;5046103;28;20043;-75
2022/11/04 00:58:54;;;;;;;50.85;48.55;;;;;;;9.91;100.00;99728.00;5045265;28;20028;-75
2022/11/04 01:01:20;;;;;;;41.33;39.55;;;;;;;9.91;100.00;99717.47;5067108;28;20438;-74
2022/11/04 01:03:51;;;;;;;42.08;40.13;;;;;;;9.84;100.00;99718.19;5070679;28;20432;-74
2022/11/04 01:06:18;;;;;;;32.10;30.88;;;;;;;9.73;100.00;99721.19;5077716;28;20024;-75
2022/11/04 01:08:44;;;;;;;35.47;33.92;;;;;;;9.80;100.00;99731.84;5079598;28;20112;-75
2022/11/04 01:11:10;;;;;;;34.45;33.13;;;;;;;9.73;100.00;99731.72;5062797;28;20069;-75
2022/11/04 01:13:37;;;;;;;38.60;36.72;;;;;;;9.85;100.00;99756.72;5079485;28;20511;-75
2022/11/04 01:16:08;;;;;;;35.85;34.30;;;;;;;9.87;100.00;99760.00;5079131;28;20123;-75
2022/11/04 01:18:33;;;;;;;34.83;33.50;;;;;;;9.83;100.00;99763.97;5057964;28;20057;-75
2022/11/04 01:21:04;;;;;;;40.42;38.85;;;;;;;9.89;100.00;99768.56;5062741;28;20111;-75
2022/11/04 01:23:29;;;;;;;34.13;32.83;;;;;;;9.81;100.00;99747.50;5081022;28;20028;-75
2022/11/04 01:25:55;;;;;;;33.20;31.77;;;;;;;9.87;100.00;99772.34;5061107;28;20032;-75
2022/11/04 01:28:20;;;;;;;36.60;35.28;;;;;;;9.91;100.00;99764.91;5068577;28;20679;-75
2022/11/04 01:30:46;;;;;;;28.73;27.67;;;;;;;9.84;100.00;99746.31;5050617;28;20040;-75
2022/11/04 01:33:11;;;;;;;32.17;31.00;;;;;;;9.88;100.00;99756.34;5033002;28;20056;-75
2022/11/04 01:35:37;;;;;;;30.48;29.38;;;;;;;9.94;100.00;99751.41;5052961;28;20048;-75
2022/11/04 01:38:03;;;;;;;28.33;27.35;;;;;;;9.80;100.00;99735.34;5051395;28;20040;-75
2022/11/04 01:40:28;;;;;;;25.40;24.45;;;;;;;9.80;100.00;99723.94;5052290;28;20055;-75
2022/11/04 01:42:54;;;;;;;26.50;25.55;;;;;;;9.91;100.00;99759.63;5050029;28;20052;-75
2022/11/04 01:45:21;;;;;;;25.48;24.58;;;;;;;9.83;100.00;99779.78;5050477;28;20086;-75
2022/11/04 01:48:00;;;;;;;23.42;22.58;;;;;;;9.72;100.00;99772.25;5068182;28;20772;-75
2022/11/04 01:50:28;;;;;;;23.25;22.40;;;;;;;9.81;100.00;99780.94;5067323;28;20132;-75
2022/11/04 01:53:15;;;;;;;24.25;23.38;;;;;;;9.77;100.00;99796.25;5049729;28;20074;-75
2022/11/04 01:55:48;;;;;;;21.83;20.88;;;;;;;9.75;100.00;99806.16;5049593;28;20036;-75
2022/11/04 01:58:17;;;;;;;21.63;20.85;;;;;;;9.60;100.00;99790.25;5066817;28;20054;-75
2022/11/04 02:00:43;;;;;;;21.88;21.10;;;;;;;9.69;100.00;99806.84;5049283;28;20111;-75
2022/11/04 02:03:19;;;;;;;25.40;24.45;;;;;;;9.71;100.00;99818.00;5049084;28;20033;-74
2022/11/04 02:05:46;;;;;;;21.23;20.48;;;;;;;9.71;100.00;99818.00;5066809;28;20107;-74
2022/11/04 02:08:14;;;;;;;24.55;23.70;;;;;;;9.71;100.00;99818.00;5066170;28;20507;-74
2022/11/04 02:10:42;;;;;;;25.63;24.52;;;;;;;9.70;100.00;99820.84;5067647;28;20051;-75
2022/11/04 02:13:08;;;;;;;26.08;24.50;;;;;;;9.77;100.00;99819.16;5068099;28;20035;-75
2022/11/04 02:15:56;;;;;;;25.63;24.70;;;;;;;9.65;100.00;99810.81;5066262;28;20029;-75
2022/11/04 02:18:40;;;;;;;31.85;30.70;;;;;;;9.65;100.00;99813.44;5048791;28;20093;-75
2022/11/04 02:21:39;;;;;;;22.17;21.35;;;;;;;9.60;100.00;99810.47;5040969;28;20035;-75
2022/11/04 02:24:04;;;;;;;21.80;21.02;;;;;;;9.63;100.00;99818.06;5068347;28;20040;-75
2022/11/04 02:26:57;;;;;;;32.00;30.35;;;;;;;9.65;100.00;99813.44;5068420;28;20027;-75
2022/11/04 02:29:34;;;;;;;25.70;24.75;;;;;;;9.60;100.00;99802.56;5068724;28;20031;-75
2022/11/04 02:32:24;;;;;;;27.98;26.98;;;;;;;9.69;100.00;99814.75;5052665;28;20174;-75
2022/11/04 02:35:31;;;;;;;27.75;26.70;;;;;;;9.72;100.00;99824.94;5053288;28;20035;-75
2022/11/04 02:38:21;;;;;;;21.33;20.58;;;;;;;9.70;100.00;99821.66;5068080;28;20047;-75
2022/11/04 02:41:03;;;;;;;20.42;19.70;;;;;;;9.72;100.00;99832.84;5070006;28;20033;-74
2022/11/04 02:43:56;;;;;;;26.13;25.15;;;;;;;9.74;100.00;99840.59;5070135;28;20535;-74
2022/11/04 02:46:35;;;;;;;27.48;26.48;;;;;;;9.50;100.00;99825.69;5051376;28;20036;-75
2022/11/04 02:49:11;;;;;;;24.70;23.75;;;;;;;9.62;100.00;99850.66;5069127;28;20024;-75
2022/11/04 02:51:52;;;;;;;26.83;25.80;;;;;;;9.55;100.00;99860.22;5054156;28;20039;-75
2022/11/04 02:55:07;;;;;;;32.72;31.60;;;;;;;9.52;100.00;99879.00;5067765;28;20162;-74
2022/11/04 02:57:37;;;;;;;25.02;23.95;;;;;;;9.54;100.00;99890.16;4985654;28;20061;-75
2022/11/04 03:00:06;;;;;;;44.53;42.83;;;;;;;9.51;100.00;99901.06;4979208;28;20841;-75
2022/11/04 03:02:50;;;;;;;41.45;39.28;;;;;;;9.41;100.00;99903.88;4983838;28;20120;-75
2022/11/04 03:05:20;;;;;;;24.13;23.23;;;;;;;9.35;100.00;99907.97;4983087;28;20042;-75
2022/11/04 03:07:49;;;;;;;35.75;34.50;;;;;;;9.42;100.00;99919.47;4982941;28;20116;-75
2022/11/04 03:10:19;;;;;;;32.90;30.77;;;;;;;9.26;100.00;99911.59;4985053;28;20030;-74
2022/11/04 03:12:52;;;;;;;27.15;26.20;;;;;;;9.35;100.00;99933.50;4992976;28;20026;-75
2022/11/04 03:15:25;;;;;;;28.92;27.90;;;;;;;9.30;100.00;99947.16;4993915;28;20180;-75
2022/11/04 03:18:07;;;;;;;25.65;24.67;;;;;;;9.28;100.00;99941.22;4996175;28;20046;-75
2022/11/04 03:20:35;;;;;;;27.38;26.20;;;;;;;9.15;100.00;99922.47;4993018;28;20169;-75
2022/11/04 03:23:01;;;;;;;32.08;30.92;;;;;;;9.26;100.00;99951.09;4981884;28;20034;-75
2022/11/04 03:25:35;;;;;;;35.03;33.53;;;;;;;9.32;100.00;99950.44;4949913;28;20056;-75
2022/11/04 03:28:07;;;;;;;34.00;32.75;;;;;;;9.31;100.00;99948.78;4991393;28;20145;-74
2022/11/04 03:30:42;;;;;;;29.85;28.45;;;;;;;9.22;100.00;99947.97;4979106;28;20545;-74
2022/11/04 03:33:20;;;;;;;25.33;23.83;;;;;;;9.31;100.00;99950.59;4993310;28;20518;-75
2022/11/04 03:35:46;;;;;;;51.80;49.83;;;;;;;9.23;100.00;99946.13;5077841;28;20089;-75
2022/11/04 03:38:12;;;;;;;35.63;33.40;;;;;;;9.29;100.00;99961.28;5057439;28;20040;-75
2022/11/04 03:40:37;;;;;;;108.90;104.65;;;;;;;9.29;100.00;99965.75;5059374;28;20039;-75
2022/11/04 03:43:10;;;;;;;39.53;38.10;;;;;;;9.24;100.00;99974.94;5075980;28;20039;-75
2022/11/04 03:45:38;;;;;;;30.10;29.02;;;;;;;9.21;100.00;99980.56;5075533;28;20024;-75
2022/11/04 03:48:04;;;;;;;31.23;30.10;;;;;;;9.18;100.00;99972.13;5058908;28;20016;-75
2022/11/04 03:50:32;;;;;;;32.45;31.30;;;;;;;9.11;100.00;99971.97;5075032;28;20116;-75
2022/11/04 03:52:58;;;;;;;30.33;29.08;;;;;;;9.08;100.00;99974.94;5072190;28;20519;-75
2022/11/04 03:55:33;;;;;;;33.60;32.40;;;;;;;9.11;100.00;99984.31;5053276;28;20039;-75
2022/11/04 03:58:14;;;;;;;33.05;31.88;;;;;;;9.10;100.00;99998.44;5072974;28;20495;-74
2022/11/04 04:00:48;;;;;;;36.28;34.97;;;;;;;9.16;100.00;100003.06;5075475;28;20027;-74
2022/11/04 04:03:24;;;;;;;33.90;32.70;;;;;;;9.17;100.00;100005.56;5075964;28;20039;-74
2022/11/04 04:06:08;;;;;;;39.47;37.95;;;;;;;9.23;100.00;100007.53;5074833;28;20020;-74
2022/11/04 04:08:49;;;;;;;32.60;31.45;;;;;;;9.18;100.00;99995.84;5071337;28;20035;-74
2022/11/04 04:11:17;;;;;;;;;;;;;;;9.27;100.00;100018.56;5074834;28;20810;-74
2022/11/04 04:13:49;;;;;;;16.25;15.68;;;;;;;9.31;100.00;100033.06;5059471;28;19958;-74
2022/11/04 04:16:28;;;;;;;30.40;28.92;;;;;;;9.37;100.00;100039.50;5054585;28;20087;-74
2022/11/04 04:19:09;;;;;;;31.58;30.20;;;;;;;9.45;100.00;100060.56;5056965;28;20028;-75
2022/11/04 04:21:43;;;;;;;27.83;26.80;;;;;;;9.50;100.00;100060.09;5052275;28;20496;-75
2022/11/04 04:29:44;;;;;;;35.85;34.55;;;;;;;9.36;100.00;100046.53;5058024;28;20094;-75
2022/11/04 04:32:10;;;;;;;30.70;29.30;;;;;;;9.36;100.00;100057.06;5054266;28;20028;-75
2022/11/04 04:34:36;;;;;;;33.28;31.92;;;;;;;9.41;100.00;100069.78;5056536;28;20062;-75
2022/11/04 04:37:06;;;;;;;32.58;31.38;;;;;;;9.44;100.00;100095.78;5055493;28;20464;-75
2022/11/04 04:45:25;;;;;;;21.60;20.77;;;;;;;9.32;100.00;100091.78;5056632;28;20051;-75
2022/11/04 04:47:51;;;;;;;23.98;22.95;;;;;;;9.32;100.00;100091.78;5051209;28;20115;-75
2022/11/04 04:50:19;;;;;;;26.90;25.95;;;;;;;9.24;100.00;100089.97;5054045;28;20124;-75
2022/11/04 04:52:50;;;;;;;21.50;20.70;;;;;;;9.25;100.00;100096.88;5055108;28;20021;-75
2022/11/04 04:55:16;;;;;;;19.13;18.30;;;;;;;9.25;100.00;100102.16;5055646;28;20036;-75
2022/11/04 04:57:42;;;;;;;19.38;18.67;;;;;;;9.24;100.00;100095.25;5051977;28;20042;-75
2022/11/04 05:00:11;;;;;;;22.65;21.83;;;;;;;9.13;100.00;100090.28;5054185;28;20100;-74
2022/11/04 05:02:36;;;;;;;19.02;18.38;;;;;;;9.24;100.00;100114.50;5052641;28;20480;-74
2022/11/04 05:05:02;;;;;;;15.50;14.98;;;;;;;9.23;100.00;100117.28;5040018;28;20037;-74
2022/11/04 05:07:28;;;;;;;21.77;21.00;;;;;;;9.20;100.00;100109.72;5052971;28;20037;-73
2022/11/04 05:09:53;;;;;;;20.70;19.90;;;;;;;9.21;100.00;100116.59;5035972;28;20036;-73
2022/11/04 05:12:18;;;;;;;19.88;19.15;;;;;;;9.19;100.00;100118.56;5056884;28;20101;-74
2022/11/04 05:14:44;;;;;;;20.02;19.30;;;;;;;9.17;100.00;100125.84;5057276;28;20032;-74
2022/11/04 05:17:09;;;;;;;19.90;18.77;;;;;;;9.14;100.00;100136.66;5050820;28;20056;-74
2022/11/04 05:19:35;;;;;;;19.90;19.20;;;;;;;9.04;100.00;100142.88;5034283;28;20560;-74
2022/11/04 05:22:00;;;;;;;22.60;21.83;;;;;;;8.95;100.00;100129.81;5056237;28;20028;-74
2022/11/04 05:24:25;;;;;;;22.25;21.45;;;;;;;8.93;100.00;100122.09;5057025;28;20060;-74
2022/11/04 05:26:51;;;;;;;24.92;23.45;;;;;;;9.02;100.00;100147.47;5051969;28;20044;-74
2022/11/04 05:29:16;;;;;;;23.42;22.60;;;;;;;9.10;100.00;100164.28;5054733;28;20040;-74
2022/11/04 05:31:42;;;;;;;22.40;21.55;;;;;;;8.99;100.00;100149.59;5053840;28;20032;-74
2022/11/04 05:34:10;;;;;;;24.95;24.08;;;;;;;8.99;100.00;100149.59;5058190;28;20669;-74
2022/11/04 05:36:36;;;;;;;27.20;26.00;;;;;;;9.03;100.00;100158.81;5056369;28;20029;-74
2022/11/04 05:39:02;;;;;;;26.00;25.05;;;;;;;9.10;100.00;100169.53;5054961;28;20062;-74
2022/11/04 05:41:27;;;;;;;25.48;24.55;;;;;;;9.14;100.00;100173.53;5058204;28;20039;-74
2022/11/04 05:43:58;;;;;;;27.45;26.50;;;;;;;9.10;100.00;100169.53;5057675;28;20029;-74
2022/11/04 05:46:24;;;;;;;24.73;23.85;;;;;;;9.23;100.00;100185.72;5055419;28;20025;-75
2022/11/04 05:48:50;;;;;;;23.63;22.80;;;;;;;9.24;100.00;100192.66;5052340;28;20098;-75
2022/11/04 05:51:19;;;;;;;24.00;23.13;;;;;;;9.30;100.00;100183.28;5058555;28;20032;-75
2022/11/04 05:53:45;;;;;;;25.98;25.08;;;;;;;9.31;100.00;100191.03;5055442;28;20025;-75
2022/11/04 05:56:11;;;;;;;20.90;20.13;;;;;;;9.31;100.00;100201.56;5052115;28;20040;-74
2022/11/04 05:58:36;;;;;;;23.65;22.77;;;;;;;9.34;100.00;100196.00;5057837;28;20036;-74
2022/11/04 06:01:28;;;;;;;20.00;19.30;;;;;;;9.35;100.00;100197.66;5052827;28;20496;-74
2022/11/04 06:03:55;;;;;;;18.08;17.42;;;;;;;9.16;100.00;100177.63;5055125;28;20136;-74
2022/11/04 06:06:22;;;;;;;16.67;16.05;;;;;;;9.29;100.00;100197.47;5057717;28;20026;-74
2022/11/04 06:08:49;;;;;;;21.67;20.75;;;;;;;9.26;100.00;100198.59;5055069;28;20042;-74
2022/11/04 06:11:14;;;;;;;19.83;19.13;;;;;;;9.24;100.00;100200.56;5055080;28;20037;-74
2022/11/04 06:13:40;;;;;;;22.75;21.95;;;;;;;9.24;100.00;100204.00;5054457;28;20443;-74
2022/11/04 06:16:06;;;;;;;23.45;22.60;;;;;;;9.24;100.00;100219.00;5039863;28;20037;-74
2022/11/04 06:18:31;;;;;;;23.65;22.73;;;;;;;9.23;100.00;100215.53;5058536;28;20512;-74
2022/11/04 06:21:27;;;;;;;43.47;41.88;;;;;;;9.10;100.00;100214.28;5054984;28;20159;-75
2022/11/04 06:23:56;;;;;;;16.92;15.63;;;;;;;9.13;100.00;100219.28;5039240;28;20052;-75
2022/11/04 06:26:22;;;;;;;18.20;17.55;;;;;;;9.07;100.00;100224.16;5057671;28;20039;-74
2022/11/04 06:28:48;;;;;;;18.27;17.63;;;;;;;8.93;100.00;100205.47;5072529;28;20119;-74
2022/11/04 06:31:14;;;;;;;17.60;16.98;;;;;;;9.05;100.00;100225.28;5040651;28;20617;-74
2022/11/04 06:33:40;;;;;;;22.13;21.15;;;;;;;8.93;100.00;100211.59;5076916;28;20397;-74
2022/11/04 06:36:09;;;;;;;21.50;20.73;;;;;;;9.13;100.00;100230.63;5040862;28;20036;-74
2022/11/04 06:38:39;;;;;;;20.42;19.30;;;;;;;9.15;100.00;100233.91;5053770;28;20159;-74
2022/11/04 06:41:11;;;;;;;19.63;18.75;;;;;;;9.15;100.00;100233.09;5070018;28;20036;-74
2022/11/04 06:43:36;;;;;;;21.13;20.38;;;;;;;9.18;100.00;100238.03;5056504;28;20040;-75
2022/11/04 06:46:02;;;;;;;25.05;23.25;;;;;;;9.18;100.00;100235.41;5056749;28;20032;-75
2022/11/04 06:48:29;;;;;;;27.23;25.48;;;;;;;9.18;100.00;100241.50;5070371;28;20239;-75
2022/11/04 06:50:58;;;;;;;25.85;24.75;;;;;;;9.16;100.00;100240.81;5072085;28;20036;-74
2022/11/04 06:53:25;;;;;;;27.65;26.17;;;;;;;9.11;100.00;100247.56;5073768;28;20028;-74
2022/11/04 06:55:51;;;;;;;25.65;24.15;;;;;;;9.01;100.00;100248.47;5039238;28;20506;-75
2022/11/04 06:58:17;;;;;;;24.55;23.52;;;;;;;8.88;100.00;100250.66;5075248;28;20544;-74
2022/11/04 07:00:42;;;;;;;22.58;21.63;;;;;;;8.86;100.00;100257.91;5052367;28;20031;-74
2022/11/04 07:03:08;;;;;;;23.95;22.83;;;;;;;8.85;100.00;100259.72;5071628;28;20066;-74
2022/11/04 07:05:34;;;;;;;23.52;22.63;;;;;;;8.71;100.00;100268.16;5074274;28;20111;-74
2022/11/04 07:08:00;;;;;;;23.65;22.55;;;;;;;8.73;100.00;100270.63;5069163;28;20119;-74
2022/11/04 07:10:25;;;;;;;16.98;16.27;;;;;;;8.53;100.00;100272.59;5075882;28;20028;-73
2022/11/04 07:12:51;;;;;;;22.17;20.48;;;;;;;8.65;100.00;100274.84;5072080;28;20046;-74
2022/11/04 07:15:16;;;;;;;29.27;28.02;;;;;;;8.75;100.00;100285.28;5051445;28;20024;-74
2022/11/04 07:17:43;;;;;;;27.35;26.35;;;;;;;8.72;100.00;100284.78;5053218;28;20053;-74
2022/11/04 07:20:11;;;;;;;28.52;27.48;;;;;;;8.64;100.00;100289.00;5053833;28;20039;-74
2022/11/04 07:22:37;;;;;;;28.60;27.20;;;;;;;8.67;100.00;100292.28;5048483;28;20043;-74
2022/11/04 07:25:03;;;;;;;26.65;25.73;;;;;;;8.62;100.00;100285.69;5070541;28;20389;-74
2022/11/04 07:27:28;;;;;;;33.33;32.17;;;;;;;8.54;100.00;100293.50;5039147;28;20086;-74
2022/11/04 07:29:53;;;;;;;27.23;26.27;;;;;;;8.58;100.00;100294.84;5055479;28;20251;-74
2022/11/04 07:32:19;;;;;;;32.63;31.45;;;;;;;8.78;100.00;100326.25;5052279;28;20033;-74
2022/11/04 07:34:44;;;;;;;32.35;31.20;;;;;;;8.93;100.00;100316.84;5072781;28;20473;-74
2022/11/04 07:37:09;;;;;;;39.38;37.92;;;;;;;9.06;100.00;100325.19;5072358;28;20024;-74
2022/11/04 07:39:35;;;;;;;54.38;52.38;;;;;;;9.56;100.00;100325.50;5055217;28;20042;-74
2022/11/04 07:42:00;;;;;;;63.85;61.50;;;;;;;10.00;100.00;100328.03;5053070;28;20063;-74
2022/11/04 07:44:25;;;;;;;47.65;45.55;;;;;;;10.29;100.00;100339.00;5053250;28;20158;-74
2022/11/04 07:46:51;;;;;;;24.05;22.92;;;;;;;10.42;100.00;100333.28;5069775;28;20039;-74
2022/11/04 07:49:16;;;;;;;20.58;19.83;;;;;;;10.56;100.00;100344.19;5055096;28;20025;-74
2022/11/04 07:51:42;;;;;;;12.23;11.77;;;;;;;10.41;100.00;100346.63;5052188;28;20141;-74
2022/11/04 07:54:07;;;;;;;4.82;4.63;;;;;;;10.16;100.00;100354.44;5071030;28;20512;-74
2022/11/04 07:56:32;;;;;;;4.15;3.95;;;;;;;10.04;100.00;100339.91;5034099;28;20024;-74
2022/11/04 07:58:58;;;;;;;4.45;4.03;;;;;;;9.87;100.00;100345.09;5054093;28;20036;-74
2022/11/04 08:01:24;;;;;;;14.07;8.48;;;;;;;9.75;100.00;100333.16;5038491;28;20024;-74
2022/11/04 08:03:50;;;;;;;32.00;14.35;;;;;;;9.47;100.00;100338.63;5069299;28;20115;-74
2022/11/04 08:06:17;;;;;;;56.08;21.38;;;;;;;9.61;100.00;100360.13;5074165;28;20090;-74
2022/11/04 08:08:43;;;;;;;92.65;30.13;;;;;;;9.81;100.00;100368.63;5055521;28;20507;-74
2022/11/04 08:11:20;;;;;;;12.18;11.27;;;;;;;10.24;100.00;100365.03;5046471;28;20032;-74
2022/11/04 08:13:46;;;;;;;7.10;6.30;;;;;;;11.16;100.00;100378.25;5063772;28;20028;-74
2022/11/04 08:16:14;;;;;;;4.93;4.53;;;;;;;11.20;100.00;100384.03;5067672;28;20129;-74
2022/11/04 08:18:41;;;;;;;5.97;3.72;;;;;;;11.01;100.00;100374.59;5064375;28;20032;-74
2022/11/04 08:21:08;;;;;;;2.50;1.98;;;;;;;11.15;100.00;100396.88;5044522;28;20445;-75
2022/11/04 08:23:33;;;;;;;3.42;2.60;;;;;;;11.23;100.00;100394.25;5062642;28;20857;-74
2022/11/04 08:25:59;;;;;;;2.00;1.90;;;;;;;11.39;100.00;100394.25;5065011;28;20035;-74
2022/11/04 08:28:26;;;;;;;2.40;2.30;;;;;;;11.32;100.00;100398.53;5068960;28;20035;-74
2022/11/04 08:31:12;;;;;;;2.60;2.40;;;;;;;11.16;100.00;100395.91;5036250;28;20040;-74
2022/11/04 08:33:38;;;;;;;2.17;2.08;;;;;;;11.24;100.00;100395.91;5069885;28;20537;-74
2022/11/04 08:36:11;;;;;;;2.15;2.05;;;;;;;11.25;100.00;100400.19;5073016;28;20020;-74
2022/11/04 08:38:37;;;;;;;2.42;2.13;;;;;;;11.93;100.00;100406.91;5071101;28;20032;-74
2022/11/04 08:41:05;;;;;;;2.10;2.00;;;;;;;12.38;100.00;100394.84;5054435;28;20085;-74
2022/11/04 08:43:30;;;;;;;3.72;3.53;;;;;;;13.35;100.00;100387.28;5068366;28;20483;-74
2022/11/04 08:45:56;;;;;;;3.22;3.00;;;;;;;15.06;96.80;100403.13;5070102;28;20071;-75
2022/11/04 08:48:21;;;;;;;2.30;2.10;;;;;;;16.44;88.76;100402.44;5071091;28;20059;-75
2022/11/04 08:50:49;;;;;;;2.47;0.90;;;;;;;16.92;82.48;100400.75;5054011;28;20039;-75
2022/11/04 08:53:15;;;;;;;3.25;0.90;;;;;;;17.51;76.69;100399.97;5069669;28;20109;-75
2022/11/04 08:55:40;;;;;;;1.38;0.70;;;;;;;17.27;77.31;100406.75;5069073;28;20147;-75
2022/11/04 08:58:05;;;;;;;7.28;3.22;;;;;;;17.18;74.47;100390.13;5071187;28;20016;-75
2022/11/04 09:00:31;;;;;;;17.67;1.20;;;;;;;17.92;75.99;100406.91;5052023;28;20039;-75
2022/11/04 09:02:57;;;;;;;1.80;0.50;;;;;;;19.04;71.24;100407.44;5054798;28;20044;-75
2022/11/04 09:05:23;;;;;;;2.67;1.13;;;;;;;20.18;65.83;100417.94;5070701;28;20036;-75
2022/11/04 09:07:48;;;;;;;0.73;0.47;;;;;;;20.21;63.75;100424.72;5071306;28;20031;-75
2022/11/04 09:10:14;;;;;;;0.60;0.40;;;;;;;21.21;66.08;100437.66;5076395;28;20039;-75
2022/11/04 09:12:41;;;;;;;0.73;0.45;;;;;;;22.44;63.47;100440.47;5058902;28;20393;-75
2022/11/04 09:15:07;;;;;;;1.52;0.50;;;;;;;22.62;57.90;100441.34;5069845;28;20484;-75
2022/11/04 09:17:32;;;;;;;0.30;0.30;;;;;;;23.00;58.29;100430.78;5076480;28;20044;-75
2022/11/04 09:19:58;;;;;;;1.00;0.40;;;;;;;23.74;55.48;100440.56;5071128;28;20900;-75
2022/11/04 09:22:23;;;;;;;3.05;0.50;;;;;;;24.72;52.79;100449.97;5051189;28;20041;-75
2022/11/04 09:24:48;;;;;;;2.40;0.70;;;;;;;23.64;54.55;100448.50;5057452;28;20077;-75
2022/11/04 09:27:14;;;;;;;1.27;0.60;;;;;;;25.10;52.95;100465.16;5074869;28;20028;-75
2022/11/04 09:29:40;;;;;;;5.28;0.75;;;;;;;25.79;51.39;100463.59;5057491;28;20112;-75
2022/11/04 09:32:06;;;;;;;1.13;0.50;;;;;;;26.31;47.95;100464.72;5055696;28;20048;-75
2022/11/04 09:34:32;;;;;;;1.60;0.50;;;;;;;26.42;47.96;100471.78;5041378;28;20020;-75
2022/11/04 09:36:57;;;;;;;2.17;0.77;;;;;;;26.84;48.07;100476.25;5074553;28;20123;-75
2022/11/04 09:39:23;;;;;;;1.52;0.65;;;;;;;26.01;47.80;100463.47;5071511;28;20597;-76
2022/11/04 09:41:49;;;;;;;1.45;0.52;;;;;;;27.56;46.79;100479.06;5055902;28;20032;-76
2022/11/04 09:44:54;;;;;;;1.58;0.57;;;;;;;27.32;45.75;100485.03;5072063;28;21551;-76
2022/11/04 09:47:21;;;;;;;1.38;0.70;;;;;;;25.60;49.09;100490.19;5075641;28;20020;-76
2022/11/04 09:49:49;;;;;;;1.40;0.75;;;;;;;23.75;51.80;100490.72;5074998;28;20029;-76
2022/11/04 09:52:35;;;;;;;2.05;0.80;;;;;;;21.75;55.26;100484.09;5073961;28;20066;-75
2022/11/04 09:55:13;;;;;;;0.80;0.70;;;;;;;20.41;59.57;100473.56;5069188;28;20107;-75
2022/11/04 09:57:39;;;;;;;1.38;0.98;;;;;;;19.57;61.26;100502.56;5075802;28;20036;-75
2022/11/04 10:00:05;;;;;;;1.33;1.23;;;;;;;18.62;67.20;100497.94;5056477;28;20039;-75
2022/11/04 10:02:41;;;;;;;3.03;1.42;;;;;;;17.98;67.81;100510.19;5073793;28;20032;-75
2022/11/04 10:05:20;;;;;;;2.25;0.77;;;;;;;17.15;70.58;100491.03;5073764;28;20071;-75
2022/11/04 10:08:05;;;;;;;1.88;0.85;;;;;;;16.36;72.50;100501.16;5075158;28;20032;-75
2022/11/04 10:10:41;;;;;;;1.40;1.10;;;;;;;15.53;76.37;100506.25;5067735;28;20612;-75
2022/11/04 10:13:17;;;;;;;1.88;1.48;;;;;;;15.19;78.80;100505.09;5071841;28;20029;-76
2022/11/04 10:16:26;;;;;;;3.72;2.00;;;;;;;15.35;79.24;100519.16;5074654;28;20102;-75
2022/11/04 10:18:57;;;;;;;3.13;3.00;;;;;;;15.09;80.28;100527.66;5011160;28;20046;-75
2022/11/04 10:21:28;;;;;;;;;;;;;;;15.06;80.08;100530.69;4999175;28;20040;-75
2022/11/04 10:23:59;;;;;;;3.63;3.33;;;;;;;14.80;80.13;100534.69;5013586;28;19928;-75
2022/11/04 10:26:29;;;;;;;;;;;;;;;15.37;80.72;100535.72;4998510;28;20525;-75
2022/11/04 10:29:04;;;;;;;4.38;4.05;;;;;;;15.88;80.98;100527.66;5014431;28;19980;-75
2022/11/04 10:31:30;;;;;;;8.88;8.57;;;;;;;17.43;79.88;100538.88;5015920;28;20033;-75
2022/11/04 10:34:04;;;;;;;4.93;4.72;;;;;;;18.82;70.96;100540.66;4997225;28;20029;-75
2022/11/04 10:36:30;;;;;;;3.17;1.23;;;;;;;18.38;68.44;100542.19;5017382;28;20072;-75
2022/11/04 10:38:56;;;;;;;3.75;3.58;;;;;;;17.80;71.09;100553.50;5014467;28;20033;-75
2022/11/04 10:41:31;;;;;;;3.17;1.25;;;;;;;17.30;69.89;100557.53;4999851;28;20453;-75
2022/11/04 10:44:13;;;;;;;2.45;1.05;;;;;;;16.32;72.83;100553.16;4997723;28;20493;-75
2022/11/04 10:46:39;;;;;;;1.10;0.90;;;;;;;15.95;73.37;100564.97;5015206;28;20746;-75
2022/11/04 10:49:39;;;;;;;0.85;0.80;;;;;;;15.40;72.48;100554.00;5014640;28;20025;-75
2022/11/04 10:52:06;;;;;;;3.55;1.13;;;;;;;15.15;74.12;100564.94;4995769;28;20040;-75
2022/11/04 10:54:39;;;;;;;25.70;14.35;;;;;;;14.89;75.06;100551.34;5056470;28;20303;-75
2022/11/04 10:57:04;;;;;;;1.63;1.52;;;;;;;14.78;75.97;100566.75;5073607;28;20040;-75
2022/11/04 10:59:54;;;;;;;1.80;1.70;;;;;;;14.77;78.34;100570.41;5073215;28;20035;-75
2022/11/04 11:02:42;;;;;;;3.00;1.92;;;;;;;14.44;79.84;100572.59;5076060;28;20048;-75
2022/11/04 11:05:23;;;;;;;3.45;3.10;;;;;;;14.25;81.01;100570.47;5055316;28;20021;-75
2022/11/04 11:07:51;;;;;;;3.90;3.70;;;;;;;14.17;82.03;100566.03;5074921;28;20047;-75
2022/11/04 11:10:17;;;;;;;7.57;6.97;;;;;;;14.39;82.70;100574.94;5076515;28;20050;-74
2022/11/04 11:12:49;;;;;;;4.85;4.43;;;;;;;14.58;82.14;100570.97;5058859;28;20032;-74
2022/11/04 11:15:31;;;;;;;5.40;5.10;;;;;;;14.78;80.81;100574.72;5075727;28;20021;-74
2022/11/04 11:18:12;;;;;;;4.45;4.25;;;;;;;15.19;81.50;100570.72;5058879;28;20083;-75
2022/11/04 11:20:39;;;;;;;13.38;7.22;;;;;;;15.73;80.36;100572.13;5076439;28;20051;-75
2022/11/04 11:23:25;;;;;;;111.45;30.17;;;;;;;16.45;76.96;100544.44;5057988;28;20045;-76
2022/11/04 11:25:50;;;;;;;2.88;2.40;;;;;;;16.32;75.49;100571.78;5060407;28;20377;-76
2022/11/04 11:28:24;;;;;;;31.15;9.07;;;;;;;15.88;76.84;100569.41;5058191;28;20035;-76
2022/11/04 11:31:03;;;;;;;2.80;1.10;;;;;;;15.43;75.85;100572.22;5073707;28;20031;-75
2022/11/04 11:33:29;;;;;;;3.72;1.30;;;;;;;15.18;78.38;100585.84;5073248;28;20098;-75
2022/11/04 11:36:01;;;;;;;3.15;2.40;;;;;;;15.03;79.17;100587.72;5074183;28;20034;-75
2022/11/04 11:38:32;;;;;;;11.90;5.82;;;;;;;14.53;79.88;100560.88;5072696;28;20067;-74
2022/11/04 11:41:08;;;;;;;3.60;2.50;;;;;;;14.25;82.62;100563.31;5057876;28;20111;-74
2022/11/04 11:43:37;;;;;;;9.32;5.63;;;;;;;14.42;84.41;100595.03;5055428;28;20036;-74
2022/11/04 11:46:02;;;;;;;5.63;4.28;;;;;;;14.37;85.16;100595.53;5052534;28;20032;-74
2022/11/04 11:48:38;;;;;;;4.32;3.80;;;;;;;14.20;85.60;100608.16;5053185;28;20523;-74
2022/11/04 11:51:05;;;;;;;6.38;4.47;;;;;;;13.98;85.87;100610.66;5071002;28;20387;-74
2022/11/04 11:53:37;;;;;;;5.60;5.20;;;;;;;13.85;87.84;100626.34;5072114;28;20057;-74
2022/11/04 11:56:27;;;;;;;5.20;4.90;;;;;;;13.58;87.75;100631.13;5072418;28;20068;-74
2022/11/04 11:59:08;;;;;;;5.68;5.38;;;;;;;13.35;87.97;100638.25;5071702;28;20696;-74